createdAt,value
2019-03-08T00:00:45.784Z,15.24
2019-03-08T00:01:45.787Z,15.34
2019-03-08T00:02:45.790Z,15.34
2019-03-08T00:03:45.793Z,15.34
2019-03-08T00:04:45.795Z,14.95
2019-03-08T00:05:45.802Z,15.34
2019-03-08T00:06:45.800Z,14.95
2019-03-08T00:07:45.806Z,14.95
2019-03-08T00:08:45.807Z,15.05
2019-03-08T00:09:45.811Z,15.05
2019-03-08T00:10:45.813Z,14.95
2019-03-08T00:11:45.817Z,15.04
2019-03-08T00:12:45.821Z,15.14
2019-03-08T00:13:45.858Z,15.34
2019-03-08T00:14:45.824Z,15.24
2019-03-08T00:15:45.831Z,15.05
2019-03-08T00:16:45.830Z,15.05
2019-03-08T00:17:45.834Z,15.24
2019-03-08T00:18:45.843Z,15.24
2019-03-08T00:19:45.840Z,15.42
2019-03-08T00:20:45.841Z,15.34
2019-03-08T00:21:45.846Z,15.23
2019-03-08T00:22:45.849Z,15.34
2019-03-08T00:23:45.850Z,15.24
2019-03-08T00:24:45.851Z,15.24
2019-03-08T00:25:45.906Z,15.14
2019-03-08T00:26:45.860Z,14.95
2019-03-08T00:27:45.862Z,14.84
2019-03-08T00:28:45.865Z,15.14
2019-03-08T00:29:45.867Z,15.04
2019-03-08T00:30:45.873Z,15.05
2019-03-08T00:31:45.875Z,15.04
2019-03-08T00:32:45.880Z,15.14
2019-03-08T00:33:45.880Z,15.04
2019-03-08T00:34:45.882Z,15.04
2019-03-08T00:35:45.886Z,15.14
2019-03-08T00:36:45.891Z,15.04
2019-03-08T00:37:45.891Z,15.14
2019-03-08T00:38:45.895Z,15.14
2019-03-08T00:39:45.897Z,15.04
2019-03-08T00:40:45.899Z,14.94
2019-03-08T00:41:45.903Z,15.04
2019-03-08T00:42:45.906Z,15.14
2019-03-08T00:43:45.910Z,14.94
2019-03-08T00:44:45.920Z,15.14
2019-03-08T00:45:45.913Z,15.14
2019-03-08T00:46:45.918Z,15.14
2019-03-08T00:47:45.970Z,15.05
2019-03-08T00:48:45.923Z,15.04
2019-03-08T00:49:45.924Z,14.94
2019-03-08T00:50:45.929Z,15.14
2019-03-08T00:51:45.930Z,15.04
2019-03-08T00:52:45.935Z,15.04
2019-03-08T00:53:45.936Z,15.14
2019-03-08T00:54:45.940Z,14.84
2019-03-08T00:55:45.946Z,14.85
2019-03-08T00:56:45.946Z,15.33
2019-03-08T00:57:45.948Z,15.23
2019-03-08T00:58:45.950Z,15.24
2019-03-08T00:59:46.056Z,15.33
2019-03-08T01:00:45.956Z,15.33
2019-03-08T01:01:45.957Z,15.23
2019-03-08T01:02:46.014Z,15.33
2019-03-08T01:03:45.966Z,15.23
2019-03-08T01:04:45.969Z,15.23
2019-03-08T01:05:45.971Z,15.23
2019-03-08T01:06:45.975Z,15.33
2019-03-08T01:07:45.979Z,15.14
2019-03-08T01:08:45.979Z,15.14
2019-03-08T01:09:45.983Z,15.14
2019-03-08T01:10:45.997Z,15.33
2019-03-08T01:11:45.988Z,15.04
2019-03-08T01:12:45.991Z,15.33
2019-03-08T01:13:45.996Z,15.14
2019-03-08T01:14:45.997Z,15.14
2019-03-08T01:15:46.001Z,15.14
2019-03-08T01:16:46.000Z,15.04
2019-03-08T01:17:46.010Z,15.04
2019-03-08T01:18:46.008Z,15.04
2019-03-08T01:19:46.011Z,15.04
2019-03-08T01:20:46.064Z,15.04
2019-03-08T01:21:46.019Z,14.84
2019-03-08T01:22:46.020Z,14.94
2019-03-08T01:23:46.024Z,14.94
2019-03-08T01:24:46.076Z,14.94
2019-03-08T01:25:46.029Z,14.94
2019-03-08T01:26:46.031Z,14.95
2019-03-08T01:27:46.036Z,15.33
2019-03-08T01:28:46.037Z,15.23
2019-03-08T01:29:46.043Z,15.33
2019-03-08T01:30:46.045Z,15.24
2019-03-08T01:31:46.046Z,15.24
2019-03-08T01:32:46.049Z,15.24
2019-03-08T01:33:46.052Z,15.33
2019-03-08T01:34:46.054Z,15.42
2019-03-08T01:35:46.157Z,15.23
2019-03-08T01:36:46.062Z,15.42
2019-03-08T01:37:46.062Z,15.14
2019-03-08T01:38:46.066Z,15.14
2019-03-08T01:39:46.070Z,15.62
2019-03-08T01:40:46.072Z,15.52
2019-03-08T01:41:46.074Z,15.14
2019-03-08T01:42:46.077Z,15.04
2019-03-08T01:43:46.081Z,15.33
2019-03-08T01:44:46.081Z,15.62
2019-03-08T01:45:46.085Z,15.04
2019-03-08T01:46:46.089Z,15.14
2019-03-08T01:47:46.091Z,15.04
2019-03-08T01:48:46.093Z,15.52
2019-03-08T01:49:46.096Z,15.62
2019-03-08T01:50:46.100Z,15.42
2019-03-08T01:51:46.104Z,15.42
2019-03-08T01:52:46.106Z,15.42
2019-03-08T01:53:46.108Z,15.52
2019-03-08T01:54:46.111Z,15.42
2019-03-08T01:55:46.128Z,15.52
2019-03-08T01:56:46.117Z,15.42
2019-03-08T01:57:46.118Z,15.62
2019-03-08T01:58:46.127Z,15.52
2019-03-08T01:59:46.130Z,15.62
2019-03-08T02:00:46.130Z,15.42
2019-03-08T02:01:46.131Z,15.52
2019-03-08T02:02:46.135Z,15.52
2019-03-08T02:03:46.137Z,15.52
2019-03-08T02:04:46.140Z,15.42
2019-03-08T02:05:46.142Z,15.52
2019-03-08T02:06:46.145Z,15.52
2019-03-08T02:07:46.149Z,15.52
2019-03-08T02:08:46.150Z,15.52
2019-03-08T02:09:46.153Z,15.62
2019-03-08T02:10:46.160Z,15.52
2019-03-08T02:11:46.163Z,15.42
2019-03-08T02:12:46.161Z,15.52
2019-03-08T02:13:46.168Z,15.62
2019-03-08T02:14:46.167Z,15.52
2019-03-08T02:15:46.172Z,15.42
2019-03-08T02:16:46.173Z,15.52
2019-03-08T02:17:46.175Z,15.52
2019-03-08T02:18:46.182Z,15.52
2019-03-08T02:19:46.182Z,15.52
2019-03-08T02:20:46.184Z,15.42
2019-03-08T02:21:46.237Z,15.52
2019-03-08T02:22:46.191Z,15.42
2019-03-08T02:23:46.193Z,15.52
2019-03-08T02:24:46.196Z,15.42
2019-03-08T02:25:46.198Z,15.62
2019-03-08T02:26:46.208Z,15.52
2019-03-08T02:27:46.211Z,15.42
2019-03-08T02:28:46.211Z,15.52
2019-03-08T02:29:46.215Z,15.52
2019-03-08T02:30:46.216Z,15.52
2019-03-08T02:31:46.216Z,15.52
2019-03-08T02:32:46.217Z,15.62
2019-03-08T02:33:46.220Z,15.33
2019-03-08T02:34:46.224Z,15.33
2019-03-08T02:35:46.227Z,15.23
2019-03-08T02:36:46.229Z,15.52
2019-03-08T02:37:46.232Z,15.52
2019-03-08T02:38:46.235Z,15.52
2019-03-08T02:39:46.239Z,15.52
2019-03-08T02:40:46.340Z,15.62
2019-03-08T02:41:46.249Z,15.52
2019-03-08T02:42:46.246Z,15.52
2019-03-08T02:43:46.252Z,15.52
2019-03-08T02:44:46.252Z,15.52
2019-03-08T02:45:46.256Z,15.42
2019-03-08T02:46:46.257Z,15.62
2019-03-08T02:47:46.312Z,15.42
2019-03-08T02:48:46.268Z,15.42
2019-03-08T02:49:46.267Z,15.72
2019-03-08T02:50:46.274Z,15.62
2019-03-08T02:51:46.277Z,15.62
2019-03-08T02:52:46.274Z,15.62
2019-03-08T02:53:46.276Z,15.72
2019-03-08T02:54:46.279Z,15.62
2019-03-08T02:55:46.283Z,15.42
2019-03-08T02:56:46.287Z,15.42
2019-03-08T02:57:46.289Z,15.62
2019-03-08T02:58:46.292Z,15.62
2019-03-08T02:59:46.294Z,15.62
2019-03-08T03:00:46.395Z,15.52
2019-03-08T03:01:46.301Z,15.62
2019-03-08T03:02:46.302Z,15.62
2019-03-08T03:03:46.314Z,15.62
2019-03-08T03:04:46.310Z,15.52
2019-03-08T03:05:46.310Z,15.62
2019-03-08T03:06:46.314Z,15.62
2019-03-08T03:07:46.317Z,15.62
2019-03-08T03:08:46.318Z,15.72
2019-03-08T03:09:46.322Z,15.52
2019-03-08T03:10:46.349Z,15.62
2019-03-08T03:11:46.330Z,15.81
2019-03-08T03:12:46.329Z,16.01
2019-03-08T03:13:46.334Z,15.81
2019-03-08T03:14:46.335Z,15.81
2019-03-08T03:15:46.338Z,15.72
2019-03-08T03:16:46.340Z,15.81
2019-03-08T03:17:46.344Z,15.72
2019-03-08T03:18:46.346Z,15.81
2019-03-08T03:19:46.350Z,15.91
2019-03-08T03:20:46.350Z,15.72
2019-03-08T03:21:46.359Z,15.91
2019-03-08T03:22:46.358Z,16.01
2019-03-08T03:23:46.360Z,15.72
2019-03-08T03:24:46.363Z,15.81
2019-03-08T03:25:46.366Z,15.72
2019-03-08T03:26:46.369Z,15.72
2019-03-08T03:27:46.373Z,15.62
2019-03-08T03:28:46.374Z,15.72
2019-03-08T03:29:46.427Z,15.72
2019-03-08T03:30:46.391Z,15.72
2019-03-08T03:31:46.389Z,15.81
2019-03-08T03:32:46.394Z,15.72
2019-03-08T03:33:46.390Z,15.72
2019-03-08T03:34:46.391Z,15.72
2019-03-08T03:35:46.396Z,15.91
2019-03-08T03:36:46.415Z,15.81
2019-03-08T03:37:46.398Z,16.01
2019-03-08T03:38:46.403Z,15.91
2019-03-08T03:39:46.405Z,15.91
2019-03-08T03:40:46.410Z,15.91
2019-03-08T03:41:46.410Z,16.01
2019-03-08T03:42:46.415Z,15.81
2019-03-08T03:43:46.466Z,16.01
2019-03-08T03:44:46.421Z,15.72
2019-03-08T03:45:46.421Z,16.01
2019-03-08T03:46:46.425Z,15.81
2019-03-08T03:47:46.489Z,16.11
2019-03-08T03:48:46.430Z,16.30
2019-03-08T03:49:46.434Z,16.30
2019-03-08T03:50:46.436Z,16.20
2019-03-08T03:51:46.439Z,16.11
2019-03-08T03:52:46.442Z,16.01
2019-03-08T03:53:46.444Z,15.91
2019-03-08T03:54:46.448Z,16.20
2019-03-08T03:55:46.450Z,16.20
2019-03-08T03:56:46.452Z,15.91
2019-03-08T03:57:46.455Z,15.91
2019-03-08T03:58:46.508Z,15.91
2019-03-08T03:59:46.470Z,15.91
2019-03-08T04:00:46.519Z,16.11
2019-03-08T04:01:46.467Z,16.20
2019-03-08T04:02:46.469Z,16.30
2019-03-08T04:03:46.475Z,16.30
2019-03-08T04:04:46.475Z,16.39
2019-03-08T04:05:46.480Z,16.49
2019-03-08T04:06:46.481Z,16.11
2019-03-08T04:07:46.486Z,16.20
2019-03-08T04:08:46.635Z,16.30
2019-03-08T04:09:46.489Z,16.39
2019-03-08T04:10:46.494Z,16.20
2019-03-08T04:11:46.497Z,16.39
2019-03-08T04:12:46.496Z,16.59
2019-03-08T04:13:46.699Z,16.49
2019-03-08T04:14:46.502Z,16.49
2019-03-08T04:15:46.508Z,16.69
2019-03-08T04:16:46.507Z,16.49
2019-03-08T04:17:46.511Z,16.49
2019-03-08T04:18:46.513Z,16.49
2019-03-08T04:19:46.516Z,16.30
2019-03-08T04:20:46.521Z,16.59
2019-03-08T04:21:46.572Z,16.59
2019-03-08T04:22:46.528Z,16.49
2019-03-08T04:23:46.528Z,16.30
2019-03-08T04:24:46.833Z,16.30
2019-03-08T04:25:46.533Z,16.39
2019-03-08T04:26:46.537Z,16.39
2019-03-08T04:27:46.542Z,16.39
2019-03-08T04:28:46.542Z,16.39
2019-03-08T04:29:46.543Z,16.39
2019-03-08T04:30:46.547Z,16.39
2019-03-08T04:31:46.548Z,16.11
2019-03-08T04:32:46.554Z,16.11
2019-03-08T04:33:46.555Z,16.39
2019-03-08T04:34:46.658Z,16.30
2019-03-08T04:35:46.561Z,16.30
2019-03-08T04:36:46.563Z,16.39
2019-03-08T04:37:46.568Z,16.30
2019-03-08T04:38:46.569Z,16.30
2019-03-08T04:39:46.573Z,16.20
2019-03-08T04:40:46.574Z,16.30
2019-03-08T04:41:46.578Z,16.01
2019-03-08T04:42:46.583Z,16.30
2019-03-08T04:43:46.583Z,16.20
2019-03-08T04:44:46.585Z,16.30
2019-03-08T04:45:46.589Z,16.39
2019-03-08T04:46:46.591Z,16.39
2019-03-08T04:47:46.596Z,16.30
2019-03-08T04:48:46.597Z,16.39
2019-03-08T04:49:46.599Z,16.11
2019-03-08T04:50:46.655Z,16.30
2019-03-08T04:51:46.604Z,16.01
2019-03-08T04:52:46.606Z,16.11
2019-03-08T04:53:46.617Z,16.11
2019-03-08T04:54:46.614Z,16.20
2019-03-08T04:55:46.617Z,16.39
2019-03-08T04:56:46.622Z,16.39
2019-03-08T04:57:46.621Z,16.39
2019-03-08T04:58:46.725Z,16.49
2019-03-08T04:59:46.628Z,16.49
2019-03-08T05:00:46.630Z,16.49
2019-03-08T05:01:46.633Z,16.78
2019-03-08T05:02:46.635Z,16.69
2019-03-08T05:03:46.639Z,16.78
2019-03-08T05:04:46.699Z,16.78
2019-03-08T05:05:46.699Z,16.69
2019-03-08T05:06:46.650Z,16.39
2019-03-08T05:07:46.650Z,16.78
2019-03-08T05:08:46.668Z,16.69
2019-03-08T05:09:46.655Z,16.49
2019-03-08T05:10:46.659Z,16.49
2019-03-08T05:11:46.661Z,16.59
2019-03-08T05:12:46.667Z,16.59
2019-03-08T05:13:46.666Z,16.39
2019-03-08T05:14:46.771Z,16.39
2019-03-08T05:15:46.673Z,16.39
2019-03-08T05:16:46.675Z,16.88
2019-03-08T05:17:46.678Z,16.78
2019-03-08T05:18:46.680Z,17.08
2019-03-08T05:19:46.683Z,17.18
2019-03-08T05:20:46.687Z,17.18
2019-03-08T05:21:46.690Z,17.27
2019-03-08T05:22:46.691Z,16.88
2019-03-08T05:23:46.696Z,16.88
2019-03-08T05:24:46.698Z,17.08
2019-03-08T05:25:46.700Z,17.08
2019-03-08T05:26:46.710Z,16.88
2019-03-08T05:27:46.715Z,16.78
2019-03-08T05:28:46.713Z,16.88
2019-03-08T05:29:46.714Z,17.18
2019-03-08T05:30:46.712Z,17.18
2019-03-08T05:31:46.719Z,17.38
2019-03-08T05:32:46.719Z,17.38
2019-03-08T05:33:46.723Z,17.47
2019-03-08T05:34:46.731Z,17.76
2019-03-08T05:35:46.729Z,18.05
2019-03-08T05:36:46.786Z,18.15
2019-03-08T05:37:46.894Z,18.64
2019-03-08T05:38:46.736Z,18.05
2019-03-08T05:39:46.789Z,17.66
2019-03-08T05:40:46.741Z,18.05
2019-03-08T05:41:46.746Z,18.25
2019-03-08T05:42:46.747Z,18.44
2019-03-08T05:43:46.750Z,18.54
2019-03-08T05:44:46.802Z,17.96
2019-03-08T05:45:46.756Z,18.83
2019-03-08T05:46:46.759Z,18.93
2019-03-08T05:47:46.763Z,18.64
2019-03-08T05:48:46.765Z,18.64
2019-03-08T05:49:46.767Z,18.83
2019-03-08T05:50:46.771Z,18.93
2019-03-08T05:51:46.823Z,18.93
2019-03-08T05:52:46.775Z,19.04
2019-03-08T05:53:46.780Z,18.83
2019-03-08T05:54:46.782Z,18.55
2019-03-08T05:55:46.792Z,18.84
2019-03-08T05:56:46.795Z,18.93
2019-03-08T05:57:46.790Z,19.13
2019-03-08T05:58:46.794Z,18.74
2019-03-08T05:59:46.796Z,18.35
2019-03-08T06:00:46.797Z,18.74
2019-03-08T06:01:46.803Z,19.23
2019-03-08T06:02:46.810Z,18.35
2019-03-08T06:03:46.808Z,18.74
2019-03-08T06:04:46.862Z,18.26
2019-03-08T06:05:46.815Z,18.07
2019-03-08T06:06:46.819Z,18.16
2019-03-08T06:07:46.820Z,17.68
2019-03-08T06:08:46.846Z,17.87
2019-03-08T06:09:46.826Z,17.77
2019-03-08T06:10:46.829Z,17.77
2019-03-08T06:11:46.835Z,18.07
2019-03-08T06:12:46.835Z,17.87
2019-03-08T06:13:46.841Z,17.77
2019-03-08T06:14:46.842Z,17.19
2019-03-08T06:15:46.845Z,17.38
2019-03-08T06:16:46.847Z,17.38
2019-03-08T06:17:46.849Z,17.38
2019-03-08T06:18:46.858Z,17.87
2019-03-08T06:19:46.957Z,17.97
2019-03-08T06:20:46.863Z,18.07
2019-03-08T06:21:46.913Z,18.55
2019-03-08T06:22:46.867Z,18.56
2019-03-08T06:23:46.870Z,18.27
2019-03-08T06:24:46.872Z,18.45
2019-03-08T06:25:46.875Z,18.55
2019-03-08T06:26:46.883Z,18.55
2019-03-08T06:27:46.884Z,19.23
2019-03-08T06:28:46.885Z,19.43
2019-03-08T06:29:46.986Z,19.62
2019-03-08T06:30:46.891Z,19.63
2019-03-08T06:31:46.894Z,19.73
2019-03-08T06:32:46.897Z,19.92
2019-03-08T06:33:47.001Z,20.11
2019-03-08T06:34:46.953Z,20.50
2019-03-08T06:35:46.907Z,20.99
2019-03-08T06:36:46.913Z,20.70
2019-03-08T06:37:46.962Z,20.79
2019-03-08T06:38:46.915Z,20.79
2019-03-08T06:39:46.921Z,20.79
2019-03-08T06:40:46.923Z,20.70
2019-03-08T06:41:46.927Z,20.79
2019-03-08T06:42:46.930Z,20.89
2019-03-08T06:43:46.932Z,20.70
2019-03-08T06:44:47.085Z,20.79
2019-03-08T06:45:46.938Z,20.99
2019-03-08T06:46:46.943Z,20.89
2019-03-08T06:47:46.946Z,20.99
2019-03-08T06:48:47.100Z,21.09
2019-03-08T06:49:47.203Z,21.09
2019-03-08T06:50:46.956Z,21.18
2019-03-08T06:51:46.958Z,21.57
2019-03-08T06:52:47.060Z,21.57
2019-03-08T06:53:46.968Z,21.47
2019-03-08T06:54:46.971Z,21.47
2019-03-08T06:55:46.971Z,21.09
2019-03-08T06:56:46.974Z,21.18
2019-03-08T06:57:46.979Z,20.89
2019-03-08T06:58:46.982Z,20.70
2019-03-08T06:59:46.984Z,20.89
2019-03-08T07:00:47.288Z,20.50
2019-03-08T07:01:47.590Z,20.60
2019-03-08T07:02:47.395Z,20.70
2019-03-08T07:03:47.351Z,20.11
2019-03-08T07:04:47.202Z,20.11
2019-03-08T07:05:47.103Z,20.11
2019-03-08T07:06:47.004Z,19.92
2019-03-08T07:07:47.260Z,19.92
2019-03-08T07:08:47.013Z,20.21
2019-03-08T07:09:47.167Z,20.50
2019-03-08T07:10:47.020Z,20.99
2019-03-08T07:11:47.022Z,20.89
2019-03-08T07:12:47.088Z,20.70
2019-03-08T07:13:47.028Z,20.89
2019-03-08T07:14:47.032Z,20.79
2019-03-08T07:15:47.036Z,20.70
2019-03-08T07:16:47.039Z,20.79
2019-03-08T07:17:47.056Z,20.99
2019-03-08T07:18:47.044Z,20.99
2019-03-08T07:19:47.060Z,20.99
2019-03-08T07:20:47.060Z,21.18
2019-03-08T07:21:47.107Z,21.18
2019-03-08T07:22:47.059Z,21.18
2019-03-08T07:23:47.166Z,21.37
2019-03-08T07:24:47.071Z,21.67
2019-03-08T07:25:51.441Z,21.77
2019-03-08T07:26:47.119Z,21.77
2019-03-08T07:27:47.077Z,21.77
2019-03-08T07:28:47.127Z,21.77
2019-03-08T07:29:47.081Z,21.77
2019-03-08T07:30:47.084Z,21.86
2019-03-08T07:31:47.093Z,21.77
2019-03-08T07:32:47.090Z,21.77
2019-03-08T07:33:53.164Z,21.96
2019-03-08T07:34:47.098Z,21.96
2019-03-08T07:35:47.101Z,22.06
2019-03-08T07:36:47.104Z,22.06
2019-03-08T07:37:47.108Z,22.06
2019-03-08T07:38:47.110Z,22.25
2019-03-08T07:39:47.114Z,22.35
2019-03-08T07:40:47.165Z,22.25
2019-03-08T07:41:47.220Z,22.25
2019-03-08T07:42:47.122Z,22.25
2019-03-08T07:43:47.128Z,22.25
2019-03-08T07:44:47.137Z,22.35
2019-03-08T07:45:47.132Z,22.25
2019-03-08T07:46:47.238Z,22.35
2019-03-08T07:47:47.140Z,22.35
2019-03-08T07:48:47.195Z,22.44
2019-03-08T07:49:47.146Z,22.44
2019-03-08T07:50:47.300Z,22.35
2019-03-08T07:51:47.155Z,22.44
2019-03-08T07:52:47.156Z,22.54
2019-03-08T07:53:47.166Z,22.54
2019-03-08T07:54:52.969Z,22.64
2019-03-08T07:55:47.169Z,22.64
2019-03-08T07:56:47.168Z,22.64
2019-03-08T07:57:47.176Z,22.64
2019-03-08T07:58:47.180Z,22.44
2019-03-08T07:59:53.801Z,22.54
2019-03-08T08:00:47.182Z,22.44
2019-03-08T08:01:47.386Z,22.54
2019-03-08T08:02:47.293Z,22.44
2019-03-08T08:03:47.542Z,22.54
2019-03-08T08:04:47.197Z,22.35
2019-03-08T08:05:47.203Z,22.35
2019-03-08T08:06:47.201Z,22.64
2019-03-08T08:07:47.207Z,22.25
2019-03-08T08:08:51.730Z,22.54
2019-03-08T08:09:47.370Z,22.64
2019-03-08T08:10:47.217Z,22.44
2019-03-08T08:11:47.369Z,22.64
2019-03-08T08:12:47.222Z,22.64
2019-03-08T08:13:47.275Z,22.64
2019-03-08T08:14:47.281Z,22.83
2019-03-08T08:15:47.433Z,22.54
2019-03-08T08:16:47.338Z,22.65
2019-03-08T08:17:47.293Z,22.75
2019-03-08T08:18:47.343Z,22.64
2019-03-08T08:19:47.398Z,22.64
2019-03-08T08:20:47.348Z,22.64
2019-03-08T08:21:47.451Z,22.65
2019-03-08T08:22:47.312Z,22.74
2019-03-08T08:23:47.363Z,22.64
2019-03-08T08:24:47.264Z,22.74
2019-03-08T08:25:47.266Z,22.75
2019-03-08T08:26:47.372Z,22.74
2019-03-08T08:27:47.278Z,22.83
2019-03-08T08:28:50.072Z,23.03
2019-03-08T08:29:47.427Z,22.83
2019-03-08T08:30:47.283Z,22.93
2019-03-08T08:31:47.350Z,22.93
2019-03-08T08:32:47.390Z,23.03
2019-03-08T08:33:47.443Z,23.03
2019-03-08T08:34:47.348Z,22.93
2019-03-08T08:35:47.350Z,23.03
2019-03-08T08:36:47.302Z,23.03
2019-03-08T08:37:47.406Z,23.04
2019-03-08T08:38:47.308Z,22.74
2019-03-08T08:39:47.413Z,22.83
2019-03-08T08:40:47.517Z,22.74
2019-03-08T08:41:47.370Z,22.74
2019-03-08T08:42:47.375Z,22.64
2019-03-08T08:43:47.378Z,22.83
2019-03-08T08:44:47.529Z,22.74
2019-03-08T08:45:47.335Z,23.03
2019-03-08T08:46:47.337Z,23.24
2019-03-08T08:47:47.340Z,23.13
2019-03-08T08:48:47.393Z,23.13
2019-03-08T08:49:54.315Z,23.03
2019-03-08T08:50:47.449Z,23.22
2019-03-08T08:51:47.452Z,23.43
2019-03-08T08:52:47.407Z,23.52
2019-03-08T08:53:47.360Z,23.61
2019-03-08T08:54:47.364Z,23.32
2019-03-08T08:55:47.366Z,23.52
2019-03-08T08:56:47.371Z,23.61
2019-03-08T08:57:47.378Z,23.32
2019-03-08T08:58:47.375Z,23.43
2019-03-08T08:59:47.580Z,23.80
2019-03-08T09:00:47.535Z,23.61
2019-03-08T09:01:47.636Z,23.90
2019-03-08T09:02:47.791Z,23.91
2019-03-08T09:03:47.644Z,24.00
2019-03-08T09:04:47.446Z,24.29
2019-03-08T09:05:47.451Z,24.10
2019-03-08T09:06:47.406Z,24.49
2019-03-08T09:07:47.458Z,24.10
2019-03-08T09:08:47.520Z,23.80
2019-03-08T09:09:47.464Z,24.39
2019-03-08T09:10:47.418Z,24.39
2019-03-08T09:11:52.508Z,24.50
2019-03-08T09:12:47.524Z,24.29
2019-03-08T09:13:47.431Z,24.49
2019-03-08T09:14:47.431Z,24.29
2019-03-08T09:15:47.484Z,24.29
2019-03-08T09:16:47.506Z,24.01
2019-03-08T09:17:47.492Z,23.90
2019-03-08T09:18:47.504Z,23.71
2019-03-08T09:19:47.499Z,23.71
2019-03-08T09:20:47.551Z,23.61
2019-03-08T09:21:47.654Z,23.52
2019-03-08T09:22:47.558Z,23.42
2019-03-08T09:23:47.463Z,23.61
2019-03-08T09:24:47.663Z,23.71
2019-03-08T09:25:47.467Z,23.72
2019-03-08T09:26:47.471Z,23.80
2019-03-08T09:27:47.474Z,23.62
2019-03-08T09:28:47.528Z,23.52
2019-03-08T09:29:47.481Z,23.72
2019-03-08T09:30:47.635Z,23.80
2019-03-08T09:31:47.687Z,23.52
2019-03-08T09:32:47.490Z,23.61
2019-03-08T09:33:47.547Z,23.71
2019-03-08T09:34:47.647Z,23.71
2019-03-08T09:35:47.503Z,23.80
2019-03-08T09:36:47.557Z,23.80
2019-03-08T09:37:47.511Z,23.61
2019-03-08T09:38:47.528Z,23.90
2019-03-08T09:39:47.566Z,23.90
2019-03-08T09:40:47.521Z,23.71
2019-03-08T09:41:47.623Z,23.90
2019-03-08T09:42:47.578Z,24.00
2019-03-08T09:43:47.526Z,23.90
2019-03-08T09:44:47.680Z,24.01
2019-03-08T09:45:47.534Z,23.90
2019-03-08T09:46:49.236Z,23.90
2019-03-08T09:47:47.541Z,23.90
2019-03-08T09:48:48.950Z,24.00
2019-03-08T09:49:47.649Z,24.00
2019-03-08T09:50:47.551Z,23.71
2019-03-08T09:51:47.706Z,23.61
2019-03-08T09:52:47.609Z,24.00
2019-03-08T09:53:47.561Z,23.80
2019-03-08T09:54:47.865Z,24.00
2019-03-08T09:55:47.626Z,24.10
2019-03-08T09:56:47.579Z,23.80
2019-03-08T09:57:47.626Z,23.90
2019-03-08T09:58:47.592Z,23.91
2019-03-08T09:59:47.588Z,23.90
2019-03-08T10:00:47.974Z,23.90
2019-03-08T10:01:47.838Z,24.00
2019-03-08T10:02:47.590Z,24.00
2019-03-08T10:03:47.703Z,23.90
2019-03-08T10:04:47.947Z,23.80
2019-03-08T10:05:47.605Z,23.52
2019-03-08T10:06:47.774Z,23.61
2019-03-08T10:07:47.659Z,23.52
2019-03-08T10:08:47.613Z,23.52
2019-03-08T10:09:47.615Z,23.62
2019-03-08T10:10:47.777Z,23.61
2019-03-08T10:11:47.622Z,23.61
2019-03-08T10:12:47.775Z,23.61
2019-03-08T10:13:47.830Z,23.71
2019-03-08T10:14:47.731Z,23.52
2019-03-08T10:15:47.685Z,23.61
2019-03-08T10:16:47.650Z,23.52
2019-03-08T10:17:47.653Z,23.71
2019-03-08T10:18:47.724Z,23.71
2019-03-08T10:19:47.809Z,23.61
2019-03-08T10:20:47.652Z,23.61
2019-03-08T10:21:47.906Z,23.61
2019-03-08T10:22:48.317Z,23.61
2019-03-08T10:23:47.814Z,23.80
2019-03-08T10:24:47.966Z,23.80
2019-03-08T10:25:47.671Z,23.62
2019-03-08T10:26:47.773Z,23.61
2019-03-08T10:27:47.926Z,23.52
2019-03-08T10:28:47.680Z,23.52
2019-03-08T10:29:47.683Z,23.71
2019-03-08T10:30:48.035Z,23.52
2019-03-08T10:31:47.740Z,23.52
2019-03-08T10:32:47.743Z,23.61
2019-03-08T10:33:48.298Z,23.52
2019-03-08T10:34:47.848Z,23.61
2019-03-08T10:35:47.713Z,23.52
2019-03-08T10:36:47.754Z,23.61
2019-03-08T10:37:47.710Z,23.52
2019-03-08T10:38:47.716Z,23.80
2019-03-08T10:39:47.719Z,23.43
2019-03-08T10:40:47.722Z,23.61
2019-03-08T10:41:47.724Z,23.71
2019-03-08T10:42:47.732Z,23.61
2019-03-08T10:43:47.831Z,23.62
2019-03-08T10:44:47.733Z,23.80
2019-03-08T10:45:47.888Z,23.72
2019-03-08T10:46:47.741Z,23.71
2019-03-08T10:47:55.827Z,23.71
2019-03-08T10:48:47.865Z,23.80
2019-03-08T10:49:55.124Z,23.52
2019-03-08T10:50:47.754Z,23.52
2019-03-08T10:51:47.806Z,23.71
2019-03-08T10:52:47.911Z,23.80
2019-03-08T10:53:47.765Z,23.71
2019-03-08T10:54:47.771Z,23.52
2019-03-08T10:55:47.772Z,23.42
2019-03-08T10:56:47.774Z,23.52
2019-03-08T10:57:47.879Z,23.61
2019-03-08T10:58:47.832Z,23.52
2019-03-08T10:59:47.985Z,23.42
2019-03-08T11:00:47.937Z,23.61
2019-03-08T11:01:48.291Z,23.42
2019-03-08T11:02:48.323Z,23.61
2019-03-08T11:03:48.349Z,23.71
2019-03-08T11:04:47.800Z,23.61
2019-03-08T11:05:47.803Z,23.52
2019-03-08T11:06:47.861Z,23.61
2019-03-08T11:07:47.813Z,23.13
2019-03-08T11:08:47.864Z,23.52
2019-03-08T11:09:47.968Z,23.52
2019-03-08T11:10:48.523Z,23.24
2019-03-08T11:11:48.275Z,23.13
2019-03-08T11:12:47.828Z,23.32
2019-03-08T11:13:47.831Z,23.42
2019-03-08T11:14:47.834Z,23.24
2019-03-08T11:15:48.043Z,23.24
2019-03-08T11:16:47.841Z,23.43
2019-03-08T11:17:51.046Z,23.43
2019-03-08T11:18:47.850Z,23.32
2019-03-08T11:19:48.253Z,23.22
2019-03-08T11:20:47.855Z,23.24
2019-03-08T11:21:47.859Z,23.22
2019-03-08T11:22:47.863Z,23.43
2019-03-08T11:23:47.867Z,23.14
2019-03-08T11:24:47.867Z,23.13
2019-03-08T11:25:49.081Z,23.14
2019-03-08T11:26:47.878Z,23.24
2019-03-08T11:27:47.880Z,23.13
2019-03-08T11:28:47.882Z,23.14
2019-03-08T11:29:47.887Z,23.24
2019-03-08T11:30:54.015Z,23.22
2019-03-08T11:31:47.948Z,23.13
2019-03-08T11:32:47.996Z,23.24
2019-03-08T11:33:47.899Z,23.13
2019-03-08T11:34:52.078Z,23.24
2019-03-08T11:35:47.907Z,23.22
2019-03-08T11:36:47.911Z,23.14
2019-03-08T11:37:47.914Z,23.22
2019-03-08T11:38:47.917Z,23.14
2019-03-08T11:39:47.920Z,23.14
2019-03-08T11:40:47.925Z,23.13
2019-03-08T11:41:48.127Z,23.13
2019-03-08T11:42:47.931Z,23.13
2019-03-08T11:43:47.934Z,23.24
2019-03-08T11:44:47.939Z,23.32
2019-03-08T11:45:47.942Z,23.14
2019-03-08T11:46:47.943Z,23.43
2019-03-08T11:47:48.015Z,23.22
2019-03-08T11:48:47.951Z,23.22
2019-03-08T11:49:48.405Z,23.43
2019-03-08T11:50:47.959Z,23.33
2019-03-08T11:51:48.012Z,23.33
2019-03-08T11:52:47.964Z,23.24
2019-03-08T11:53:55.920Z,23.32
2019-03-08T11:54:47.973Z,23.22
2019-03-08T11:55:47.976Z,23.42
2019-03-08T11:56:55.854Z,23.52
2019-03-08T11:57:47.981Z,23.43
2019-03-08T11:58:47.985Z,23.33
2019-03-08T11:59:47.989Z,23.22
2019-03-08T12:00:48.091Z,23.42
2019-03-08T12:01:47.996Z,23.24
2019-03-08T12:02:48.049Z,23.13
2019-03-08T12:03:48.000Z,23.43
2019-03-08T12:04:48.255Z,23.13
2019-03-08T12:05:49.882Z,23.32
2019-03-08T12:06:48.015Z,23.22
2019-03-08T12:07:48.018Z,23.14
2019-03-08T12:08:48.019Z,23.13
2019-03-08T12:09:48.027Z,23.22
2019-03-08T12:10:48.029Z,23.13
2019-03-08T12:11:48.030Z,23.52
2019-03-08T12:12:48.036Z,23.03
2019-03-08T12:13:48.189Z,23.43
2019-03-08T12:14:48.239Z,23.14
2019-03-08T12:15:48.048Z,23.24
2019-03-08T12:16:48.148Z,23.32
2019-03-08T12:17:48.051Z,23.22
2019-03-08T12:18:48.102Z,23.13
2019-03-08T12:19:48.360Z,23.22
2019-03-08T12:20:48.066Z,23.13
2019-03-08T12:21:48.065Z,23.24
2019-03-08T12:22:48.068Z,23.24
2019-03-08T12:23:48.074Z,23.22
2019-03-08T12:24:48.074Z,23.22
2019-03-08T12:25:48.380Z,23.43
2019-03-08T12:26:48.182Z,23.43
2019-03-08T12:27:48.184Z,23.33
2019-03-08T12:28:48.202Z,23.22
2019-03-08T12:29:48.342Z,23.32
2019-03-08T12:30:48.197Z,23.52
2019-03-08T12:31:48.153Z,23.22
2019-03-08T12:32:48.104Z,23.42
2019-03-08T12:33:48.104Z,23.22
2019-03-08T12:34:48.111Z,23.33
2019-03-08T12:35:48.116Z,23.22
2019-03-08T12:36:48.117Z,23.22
2019-03-08T12:37:48.220Z,23.33
2019-03-08T12:38:48.123Z,23.13
2019-03-08T12:39:48.429Z,23.22
2019-03-08T12:40:48.230Z,23.22
2019-03-08T12:41:48.133Z,23.03
2019-03-08T12:42:48.137Z,23.32
2019-03-08T12:43:48.242Z,23.13
2019-03-08T12:44:48.450Z,23.13
2019-03-08T12:45:48.147Z,23.13
2019-03-08T12:46:48.203Z,23.42
2019-03-08T12:47:48.204Z,23.33
2019-03-08T12:48:50.197Z,23.32
2019-03-08T12:49:48.419Z,23.24
2019-03-08T12:50:48.164Z,23.43
2019-03-08T12:51:48.167Z,23.42
2019-03-08T12:52:48.172Z,23.71